Anguilla, Mississippi
Current Conditions -  °F | °C
As of 6:53 PM on Thursday 18 Dec 2014 (Local Time) from KGLH Reporting Station
Overcast Overcast  
Wind Chill: 50°   Ceiling: 3400
Heat Index: 50°   Visibility: 8mi
Dew Point: 44°   Wind: 7mph
Humidity: 80%   Direction: 40°NE
Pressure: 30.18"   Gusts: NA
Location:  32.97°N, 90.82°W
Report Text: KGLH 190053Z AUTO 04006KT 8SM OVC034 10/07 A3018 RMK AO2 SLP228 T01000067
Loading
Personal Weather Stations






























Interactive Weather Map New forecast layout! Learn more

10-Day Weather Forecast

Advertisements
Track Severe Weather on mobile